createdAt,value
2023-03-03T00:02:18.046Z,101451.62
2023-03-03T00:04:46.441Z,101451.45
2023-03-03T00:07:21.859Z,101452.57
2023-03-03T00:09:50.950Z,101444.90
2023-03-03T00:12:26.861Z,101437.71
2023-03-03T00:14:56.285Z,101434.69
2023-03-03T00:17:30.754Z,101428.81
2023-03-03T00:19:59.817Z,101424.69
2023-03-03T00:22:46.281Z,101420.66
2023-03-03T00:25:34.922Z,101424.20
2023-03-03T00:28:31.443Z,101421.36
2023-03-03T00:31:01.631Z,101415.02
2023-03-03T00:33:43.796Z,101413.92
2023-03-03T00:36:32.012Z,101407.88
2023-03-03T00:39:39.466Z,101412.35
2023-03-03T00:42:15.605Z,101419.16
2023-03-03T00:44:48.810Z,101412.32
2023-03-03T00:47:38.577Z,101403.54
2023-03-03T00:50:07.491Z,101403.10
2023-03-03T00:52:38.469Z,101395.33
2023-03-03T00:55:08.077Z,101392.33
2023-03-03T00:57:36.449Z,101391.48
2023-03-03T01:00:06.208Z,101387.46
2023-03-03T01:02:34.650Z,101383.71
2023-03-03T01:05:03.077Z,101385.93
2023-03-03T01:07:31.180Z,101388.02
2023-03-03T01:09:59.640Z,101382.14
2023-03-03T01:12:30.912Z,101388.23
2023-03-03T01:14:59.785Z,101399.70
2023-03-03T01:17:29.732Z,101404.57
2023-03-03T01:19:58.469Z,101403.42
2023-03-03T01:22:34.180Z,101402.39
2023-03-03T01:25:03.898Z,101397.64
2023-03-03T01:27:32.358Z,101394.42
2023-03-03T01:30:01.128Z,101394.50
2023-03-03T01:32:30.424Z,101399.71
2023-03-03T01:34:58.812Z,101399.34
2023-03-03T01:37:28.282Z,101400.73
2023-03-03T01:39:57.379Z,101393.84
2023-03-03T01:42:29.507Z,101388.44
2023-03-03T01:45:43.912Z,101384.79
2023-03-03T01:48:23.417Z,101382.04
2023-03-03T01:51:11.055Z,101377.38
2023-03-03T01:53:45.323Z,101369.06
2023-03-03T01:56:14.370Z,101363.80
2023-03-03T01:58:47.267Z,101361.23
2023-03-03T02:01:21.197Z,101362.11
2023-03-03T02:03:49.605Z,101361.44
2023-03-03T02:06:22.751Z,101371.64
2023-03-03T02:09:14.865Z,101369.79
2023-03-03T02:11:46.014Z,101369.54
2023-03-03T02:14:14.707Z,101364.95
2023-03-03T02:16:43.431Z,101369.75
2023-03-03T02:19:28.990Z,101369.70
2023-03-03T02:21:58.519Z,101364.90
2023-03-03T02:24:32.318Z,101366.69
2023-03-03T02:27:00.790Z,101361.35
2023-03-03T02:29:29.307Z,101354.75
2023-03-03T02:31:57.556Z,101350.64
2023-03-03T02:34:27.093Z,101353.36
2023-03-03T02:36:56.003Z,101352.91
2023-03-03T02:39:26.974Z,101340.70
2023-03-03T02:41:56.235Z,101324.24
2023-03-03T02:44:30.693Z,101324.61
2023-03-03T02:46:59.713Z,101318.67
2023-03-03T02:49:31.147Z,101314.95
2023-03-03T02:52:01.036Z,101330.14
2023-03-03T02:54:31.263Z,101331.25
2023-03-03T02:57:03.821Z,101327.30
2023-03-03T02:59:32.085Z,101325.42
2023-03-03T03:02:00.835Z,101326.69
2023-03-03T03:04:29.426Z,101327.21
2023-03-03T03:06:57.753Z,101327.92
2023-03-03T03:09:28.483Z,101326.10
2023-03-03T03:11:57.122Z,101317.33
2023-03-03T03:14:25.368Z,101315.56
2023-03-03T03:16:55.406Z,101311.45
2023-03-03T03:19:23.943Z,101312.96
2023-03-03T03:21:52.820Z,101315.26
2023-03-03T03:24:21.209Z,101318.42
2023-03-03T03:26:49.552Z,101319.84
2023-03-03T03:29:17.729Z,101315.80
2023-03-03T03:31:46.142Z,101313.02
2023-03-03T03:34:14.478Z,101311.74
2023-03-03T03:36:43.421Z,101304.92
2023-03-03T03:39:11.938Z,101300.94
2023-03-03T03:41:43.253Z,101294.45
2023-03-03T03:44:11.777Z,101305.67
2023-03-03T03:46:40.256Z,101297.09
2023-03-03T03:49:08.573Z,101293.27
2023-03-03T03:51:38.482Z,101298.66
2023-03-03T03:54:06.588Z,101300.01
2023-03-03T03:56:35.117Z,101301.29
2023-03-03T03:59:03.802Z,101301.06
2023-03-03T04:01:31.901Z,101294.29
2023-03-03T04:04:03.361Z,101286.48
2023-03-03T04:06:32.468Z,101293.77
2023-03-03T04:09:00.756Z,101298.13
2023-03-03T04:11:29.050Z,101304.80
2023-03-03T04:13:57.618Z,101309.41
2023-03-03T04:16:26.429Z,101304.14
2023-03-03T04:18:56.313Z,101304.83
2023-03-03T04:21:25.519Z,101301.33
2023-03-03T04:27:57.090Z,101314.33
2023-03-03T04:34:27.697Z,101311.14
2023-03-03T04:36:56.986Z,101313.79
2023-03-03T04:39:25.475Z,101319.80
2023-03-03T04:41:53.564Z,101319.68
2023-03-03T04:44:22.642Z,101318.05
2023-03-03T04:46:51.058Z,101321.17
2023-03-03T04:49:19.690Z,101314.83
2023-03-03T04:51:47.970Z,101317.89
2023-03-03T04:54:16.157Z,101314.48
2023-03-03T04:56:44.677Z,101318.05
2023-03-03T04:59:12.977Z,101309.32
2023-03-03T05:01:41.315Z,101313.70
2023-03-03T05:04:10.088Z,101318.52
2023-03-03T05:06:38.483Z,101321.21
2023-03-03T05:09:06.924Z,101318.23
2023-03-03T05:11:36.949Z,101322.02
2023-03-03T05:14:05.183Z,101322.96
2023-03-03T05:16:34.147Z,101321.15
2023-03-03T05:19:02.208Z,101320.46
2023-03-03T05:21:30.563Z,101316.25
2023-03-03T05:23:58.753Z,101322.28
2023-03-03T05:26:27.097Z,101326.16
2023-03-03T05:28:55.248Z,101321.16
2023-03-03T05:31:24.184Z,101314.86
2023-03-03T05:33:52.220Z,101310.67
2023-03-03T05:36:20.747Z,101303.64
2023-03-03T05:38:48.979Z,101296.65
2023-03-03T05:41:17.652Z,101291.69
2023-03-03T05:43:46.286Z,101288.73
2023-03-03T05:46:14.746Z,101293.25
2023-03-03T05:48:43.846Z,101287.52
2023-03-03T05:51:12.320Z,101285.63
2023-03-03T05:53:40.691Z,101284.56
2023-03-03T05:56:09.317Z,101283.64
2023-03-03T05:58:37.661Z,101287.19
2023-03-03T06:01:06.199Z,101287.95
2023-03-03T06:03:34.645Z,101289.80
2023-03-03T06:06:03.235Z,101295.47
2023-03-03T06:08:33.040Z,101304.64
2023-03-03T06:11:01.592Z,101306.31
2023-03-03T06:13:32.615Z,101303.28
2023-03-03T06:16:00.903Z,101304.86
2023-03-03T06:18:29.368Z,101308.44
2023-03-03T06:20:57.951Z,101316.88
2023-03-03T06:23:26.203Z,101313.80
2023-03-03T06:25:54.816Z,101309.02
2023-03-03T06:28:23.408Z,101307.52
2023-03-03T06:30:55.682Z,101305.11
2023-03-03T06:33:24.592Z,101308.52
2023-03-03T06:35:54.935Z,101310.95
2023-03-03T06:38:23.160Z,101314.10
2023-03-03T06:40:51.727Z,101313.11
2023-03-03T06:43:23.354Z,101308.91
2023-03-03T06:45:52.055Z,101316.11
2023-03-03T06:48:20.208Z,101321.06
2023-03-03T06:50:48.665Z,101324.23
2023-03-03T06:53:18.669Z,101328.34
2023-03-03T06:55:47.167Z,101331.45
2023-03-03T06:58:17.922Z,101338.95
2023-03-03T07:00:58.984Z,101346.64
2023-03-03T07:03:35.182Z,101350.59
2023-03-03T07:06:15.075Z,101351.08
2023-03-03T07:08:43.558Z,101356.31
2023-03-03T07:11:16.203Z,101362.27
2023-03-03T07:13:49.324Z,101362.55
2023-03-03T07:16:25.134Z,101370.48
2023-03-03T07:19:01.327Z,101367.07
2023-03-03T07:21:38.214Z,101361.06
2023-03-03T07:24:29.324Z,101355.98
2023-03-03T07:27:06.710Z,101355.60
2023-03-03T07:29:35.960Z,101358.52
2023-03-03T07:32:13.939Z,101360.20
2023-03-03T07:34:48.257Z,101365.31
2023-03-03T07:37:39.020Z,101372.77
2023-03-03T07:40:34.053Z,101374.71
2023-03-03T07:43:17.660Z,101375.08
2023-03-03T07:45:48.103Z,101375.11
2023-03-03T07:48:24.756Z,101371.85
2023-03-03T07:50:53.115Z,101376.88
2023-03-03T07:53:35.139Z,101375.36
2023-03-03T07:56:12.528Z,101385.16
2023-03-03T07:58:42.299Z,101389.52
2023-03-03T08:01:40.036Z,101388.14
2023-03-03T08:04:30.432Z,101387.39
2023-03-03T08:07:02.000Z,101384.80
2023-03-03T08:09:45.058Z,101386.05
2023-03-03T08:12:43.041Z,101389.85
2023-03-03T08:15:20.562Z,101386.56
2023-03-03T08:17:50.172Z,101388.92
2023-03-03T08:20:44.994Z,101393.66
2023-03-03T08:23:15.433Z,101395.79
2023-03-03T08:25:44.919Z,101392.70
2023-03-03T08:28:14.478Z,101394.05
2023-03-03T08:30:44.062Z,101387.73
2023-03-03T08:33:15.932Z,101388.25
2023-03-03T08:35:45.185Z,101387.73
2023-03-03T08:38:16.193Z,101382.61
2023-03-03T08:40:45.674Z,101381.84
2023-03-03T08:43:17.416Z,101387.20
2023-03-03T08:45:47.315Z,101389.38
2023-03-03T08:48:16.652Z,101395.06
2023-03-03T08:50:45.973Z,101389.86
2023-03-03T08:53:18.603Z,101389.55
2023-03-03T08:55:50.589Z,101389.38
2023-03-03T08:58:21.233Z,101392.73
2023-03-03T09:00:52.115Z,101393.49
2023-03-03T09:03:20.544Z,101393.55
2023-03-03T09:05:48.751Z,101397.09
2023-03-03T09:08:18.053Z,101397.84
2023-03-03T09:10:46.545Z,101397.86
2023-03-03T09:13:19.895Z,101388.73
2023-03-03T09:15:49.395Z,101383.27
2023-03-03T09:18:21.952Z,101375.68
2023-03-03T09:20:52.255Z,101375.86
2023-03-03T09:23:48.632Z,101370.02
2023-03-03T09:26:32.467Z,101362.56
2023-03-03T09:29:09.834Z,101361.40
2023-03-03T09:31:46.801Z,101362.63
2023-03-03T09:34:37.069Z,101361.61
2023-03-03T09:37:26.950Z,101356.39
2023-03-03T09:40:00.807Z,101349.56
2023-03-03T09:42:43.180Z,101344.78
2023-03-03T09:45:15.585Z,101346.66
2023-03-03T09:48:09.527Z,101346.71
2023-03-03T09:50:55.311Z,101333.01
2023-03-03T09:54:01.399Z,101325.05
2023-03-03T09:56:38.275Z,101325.77
2023-03-03T09:59:30.952Z,101328.71
2023-03-03T10:02:30.196Z,101327.66
2023-03-03T10:05:14.412Z,101330.44
2023-03-03T10:07:57.590Z,101326.63
2023-03-03T10:10:46.189Z,101322.45
2023-03-03T10:13:36.102Z,101321.04
2023-03-03T10:16:22.358Z,101318.96
2023-03-03T10:19:03.923Z,101318.11
2023-03-03T10:21:37.282Z,101317.77
2023-03-03T10:24:32.146Z,101318.45
2023-03-03T10:27:15.489Z,101323.30
2023-03-03T10:30:08.567Z,101324.17
2023-03-03T10:33:13.434Z,101320.71
2023-03-03T10:36:00.926Z,101319.44
2023-03-03T10:38:58.662Z,101320.30
2023-03-03T10:41:52.249Z,101316.69
2023-03-03T10:44:57.992Z,101312.85
2023-03-03T10:47:45.961Z,101315.98
2023-03-03T10:51:01.548Z,101324.49
2023-03-03T10:54:11.561Z,101325.84
2023-03-03T10:56:52.192Z,101326.70
2023-03-03T10:59:37.315Z,101327.77
2023-03-03T11:02:33.180Z,101320.99
2023-03-03T11:05:30.233Z,101322.84
2023-03-03T11:08:24.642Z,101319.41
2023-03-03T11:11:14.840Z,101312.80
2023-03-03T11:14:13.567Z,101307.23
2023-03-03T11:17:01.519Z,101311.45
2023-03-03T11:20:11.096Z,101309.94
2023-03-03T11:23:00.325Z,101296.75
2023-03-03T11:25:44.225Z,101289.10
2023-03-03T11:28:15.605Z,101284.07
2023-03-03T11:30:46.725Z,101287.56
2023-03-03T11:33:46.427Z,101285.82
2023-03-03T11:36:34.905Z,101277.31
2023-03-03T11:39:09.416Z,101282.66
2023-03-03T11:41:53.572Z,101279.89
2023-03-03T11:44:44.406Z,101281.47
2023-03-03T11:47:26.507Z,101279.56
2023-03-03T11:50:12.247Z,101278.34
2023-03-03T11:53:00.343Z,101276.77
2023-03-03T11:55:37.839Z,101277.13
2023-03-03T11:58:25.340Z,101271.40
2023-03-03T12:01:26.360Z,101268.27
2023-03-03T12:04:19.476Z,101271.39
2023-03-03T12:07:16.815Z,101274.70
2023-03-03T12:10:02.256Z,101273.84
2023-03-03T12:12:30.555Z,101273.65
2023-03-03T12:15:19.770Z,101271.39
2023-03-03T12:18:09.265Z,101270.36
2023-03-03T12:20:52.461Z,101268.27
2023-03-03T12:23:43.629Z,101273.65
2023-03-03T12:26:32.402Z,101268.11
2023-03-03T12:29:30.533Z,101265.84
2023-03-03T12:32:23.210Z,101263.76
2023-03-03T12:34:58.795Z,101260.29
2023-03-03T12:37:48.639Z,101253.85
2023-03-03T12:40:28.000Z,101254.55
2023-03-03T12:43:19.763Z,101247.94
2023-03-03T12:46:03.608Z,101246.19
2023-03-03T12:48:45.375Z,101239.93
2023-03-03T12:51:39.593Z,101240.61
2023-03-03T12:54:25.885Z,101237.83
2023-03-03T12:57:11.610Z,101239.58
2023-03-03T13:00:02.812Z,101241.47
2023-03-03T13:02:59.504Z,101241.46
2023-03-03T13:05:56.660Z,101231.91
2023-03-03T13:08:49.449Z,101229.29
2023-03-03T13:11:48.830Z,101228.41
2023-03-03T13:14:32.367Z,101223.19
2023-03-03T13:17:24.832Z,101223.59
2023-03-03T13:20:00.657Z,101222.36
2023-03-03T13:22:41.618Z,101219.73
2023-03-03T13:25:31.122Z,101216.75
2023-03-03T13:28:14.353Z,101214.29
2023-03-03T13:30:49.981Z,101214.15
2023-03-03T13:33:29.054Z,101208.93
2023-03-03T13:36:02.789Z,101206.51
2023-03-03T13:38:42.347Z,101202.29
2023-03-03T13:41:49.979Z,101201.39
2023-03-03T13:44:26.273Z,101198.23
2023-03-03T13:47:09.259Z,101199.95
2023-03-03T13:50:01.628Z,101195.57
2023-03-03T13:52:34.335Z,101197.02
2023-03-03T13:55:29.694Z,101198.36
2023-03-03T13:58:23.106Z,101201.05
2023-03-03T14:01:22.286Z,101203.44
2023-03-03T14:04:29.316Z,101204.36
2023-03-03T14:07:04.334Z,101200.90
2023-03-03T14:09:53.578Z,101191.17
2023-03-03T14:12:36.514Z,101191.55
2023-03-03T14:15:31.077Z,101187.17
2023-03-03T14:18:10.152Z,101188.38
2023-03-03T14:20:44.354Z,101179.01
2023-03-03T14:23:42.826Z,101180.21
2023-03-03T14:26:12.499Z,101181.11
2023-03-03T14:28:46.602Z,101176.40
2023-03-03T14:31:26.789Z,101165.23
2023-03-03T14:34:11.774Z,101154.27
2023-03-03T14:36:43.446Z,101147.98
2023-03-03T14:39:37.929Z,101145.52
2023-03-03T14:42:13.163Z,101146.13
2023-03-03T14:44:47.490Z,101150.45
2023-03-03T14:47:27.400Z,101146.77
2023-03-03T14:50:03.277Z,101141.35
2023-03-03T14:52:34.518Z,101138.26
2023-03-03T14:55:32.316Z,101132.38
2023-03-03T14:58:01.745Z,101126.14
2023-03-03T15:00:36.239Z,101129.69
2023-03-03T15:03:21.589Z,101123.73
2023-03-03T15:05:52.136Z,101115.14
2023-03-03T15:08:32.147Z,101114.73
2023-03-03T15:11:20.419Z,101112.45
2023-03-03T15:13:49.402Z,101111.67
2023-03-03T15:16:23.023Z,101109.91
2023-03-03T15:19:28.724Z,101109.17
2023-03-03T15:22:08.555Z,101110.63
2023-03-03T15:24:48.059Z,101109.77
2023-03-03T15:27:25.650Z,101110.88
2023-03-03T15:30:24.745Z,101115.52
2023-03-03T15:33:34.816Z,101116.83
2023-03-03T15:36:47.985Z,101110.08
2023-03-03T15:39:37.583Z,101107.55
2023-03-03T15:42:36.126Z,101102.55
2023-03-03T15:45:33.981Z,101102.73
2023-03-03T15:48:42.843Z,101103.97
2023-03-03T15:52:01.177Z,101096.31
2023-03-03T15:54:59.208Z,101096.64
2023-03-03T15:58:07.792Z,101090.86
2023-03-03T16:00:48.170Z,101092.30
2023-03-03T16:03:32.120Z,101080.48
2023-03-03T16:06:19.923Z,101080.09
2023-03-03T16:09:23.817Z,101079.07
2023-03-03T16:12:16.896Z,101077.25
2023-03-03T16:14:57.768Z,101076.04
2023-03-03T16:17:57.641Z,101076.05
2023-03-03T16:20:47.214Z,101075.86
2023-03-03T16:23:25.146Z,101072.23
2023-03-03T16:26:05.559Z,101076.76
2023-03-03T16:28:54.326Z,101075.97
2023-03-03T16:31:29.810Z,101076.24
2023-03-03T16:34:20.612Z,101077.98
2023-03-03T16:37:09.199Z,101079.90
2023-03-03T16:39:43.124Z,101079.44
2023-03-03T16:42:24.022Z,101077.70
2023-03-03T16:45:09.212Z,101074.41
2023-03-03T16:47:59.427Z,101074.77
2023-03-03T16:50:36.914Z,101079.14
2023-03-03T16:53:27.954Z,101080.71
2023-03-03T16:56:22.228Z,101079.14
2023-03-03T16:59:18.090Z,101068.55
2023-03-03T17:02:18.246Z,101074.11
2023-03-03T17:04:59.544Z,101076.03
2023-03-03T17:07:49.654Z,101077.93
2023-03-03T17:10:32.998Z,101077.77
2023-03-03T17:13:23.363Z,101077.08
2023-03-03T17:16:14.425Z,101073.06
2023-03-03T17:19:13.613Z,101066.98
2023-03-03T17:21:47.730Z,101068.21
2023-03-03T17:24:48.035Z,101063.20
2023-03-03T17:27:39.547Z,101066.15
2023-03-03T17:30:22.391Z,101059.90
2023-03-03T17:33:00.480Z,101056.08
2023-03-03T17:35:54.970Z,101053.47
2023-03-03T17:38:41.792Z,101054.86
2023-03-03T17:41:18.319Z,101055.91
2023-03-03T17:44:08.419Z,101053.84
2023-03-03T17:46:48.041Z,101054.52
2023-03-03T17:49:40.704Z,101045.14
2023-03-03T17:52:28.850Z,101051.02
2023-03-03T17:55:19.044Z,101044.43
2023-03-03T17:58:14.535Z,101048.77
2023-03-03T18:00:43.705Z,101045.14
2023-03-03T18:03:30.032Z,101045.84
2023-03-03T18:06:17.211Z,101052.78
2023-03-03T18:09:15.259Z,101046.70
2023-03-03T18:11:53.161Z,101049.66
2023-03-03T18:14:59.496Z,101044.98
2023-03-03T18:17:43.426Z,101039.77
2023-03-03T18:20:51.027Z,101035.95
2023-03-03T18:23:35.845Z,101027.44
2023-03-03T18:26:32.778Z,101030.21
2023-03-03T18:29:25.216Z,101037.51
2023-03-03T18:31:53.680Z,101036.13
2023-03-03T18:34:44.367Z,101026.56
2023-03-03T18:37:33.061Z,101020.50
2023-03-03T18:40:04.310Z,101013.02
2023-03-03T18:42:40.578Z,101019.97
2023-03-03T18:45:23.060Z,101011.14
2023-03-03T18:48:13.968Z,101011.98
2023-03-03T18:50:47.983Z,101012.67
2023-03-03T18:53:27.368Z,101015.64
2023-03-03T18:56:01.149Z,101015.98
2023-03-03T18:58:36.182Z,101008.02
2023-03-03T19:01:23.254Z,101007.67
2023-03-03T19:03:51.682Z,101001.77
2023-03-03T19:06:38.511Z,100995.14
2023-03-03T19:09:12.707Z,100994.45
2023-03-03T19:11:51.666Z,100983.69
2023-03-03T19:14:29.888Z,100980.54
2023-03-03T19:17:19.360Z,100983.45
2023-03-03T19:20:09.461Z,100974.98
2023-03-03T19:23:04.757Z,100970.83
2023-03-03T19:25:33.174Z,100965.59
2023-03-03T19:28:17.830Z,100969.04
2023-03-03T19:31:17.820Z,100960.94
2023-03-03T19:33:55.744Z,100956.30
2023-03-03T19:36:45.497Z,100954.37
2023-03-03T19:39:23.096Z,100944.97
2023-03-03T19:41:51.346Z,100934.88
2023-03-03T19:44:29.823Z,100937.97
2023-03-03T19:47:10.916Z,100933.64
2023-03-03T19:49:58.436Z,100921.65
2023-03-03T19:53:02.005Z,100909.73
2023-03-03T19:56:00.463Z,100901.36
2023-03-03T19:58:55.898Z,100899.80
2023-03-03T20:01:32.073Z,100896.05
2023-03-03T20:04:26.872Z,100901.83
2023-03-03T20:07:31.833Z,100895.27
2023-03-03T20:10:24.924Z,100893.13
2023-03-03T20:13:07.104Z,100886.38
2023-03-03T20:15:49.516Z,100879.97
2023-03-03T20:18:44.580Z,100874.05
2023-03-03T20:21:24.124Z,100863.09
2023-03-03T20:24:28.549Z,100860.98
2023-03-03T20:27:18.789Z,100863.76
2023-03-03T20:30:25.489Z,100861.64
2023-03-03T20:33:12.540Z,100851.98
2023-03-03T20:35:50.438Z,100855.98
2023-03-03T20:38:33.720Z,100852.97
2023-03-03T20:41:01.872Z,100848.37
2023-03-03T20:43:36.259Z,100846.79
2023-03-03T20:46:18.199Z,100844.94
2023-03-03T20:48:49.013Z,100843.38
2023-03-03T20:51:56.012Z,100838.77
2023-03-03T20:54:36.928Z,100844.99
2023-03-03T20:57:34.224Z,100845.70
2023-03-03T21:00:19.231Z,100846.78
2023-03-03T21:02:55.910Z,100845.09
2023-03-03T21:05:24.368Z,100843.16
2023-03-03T21:08:05.745Z,100843.70
2023-03-03T21:10:36.690Z,100841.23
2023-03-03T21:13:40.403Z,100830.15
2023-03-03T21:16:21.125Z,100818.48
2023-03-03T21:19:06.756Z,100821.35
2023-03-03T21:21:38.385Z,100816.56
2023-03-03T21:24:09.069Z,100810.79
2023-03-03T21:26:58.415Z,100807.36
2023-03-03T21:29:35.420Z,100805.20
2023-03-03T21:32:07.696Z,100813.81
2023-03-03T21:34:42.422Z,100811.12
2023-03-03T21:37:12.656Z,100812.43
2023-03-03T21:39:44.236Z,100812.54
2023-03-03T21:42:29.383Z,100806.94
2023-03-03T21:44:57.651Z,100798.27
2023-03-03T21:47:29.722Z,100805.87
2023-03-03T21:49:58.167Z,100801.69
2023-03-03T21:52:27.717Z,100804.45
2023-03-03T21:54:56.717Z,100812.38
2023-03-03T21:57:26.023Z,100814.85
2023-03-03T21:59:58.038Z,100808.59
2023-03-03T22:02:26.793Z,100803.54
2023-03-03T22:04:55.013Z,100800.89
2023-03-03T22:07:23.844Z,100802.89
2023-03-03T22:09:52.176Z,100807.53
2023-03-03T22:12:20.407Z,100813.31
2023-03-03T22:14:49.629Z,100812.98
2023-03-03T22:17:17.793Z,100813.29
2023-03-03T22:19:46.242Z,100806.86
2023-03-03T22:22:14.725Z,100809.56
2023-03-03T22:24:43.397Z,100796.19
2023-03-03T22:27:12.426Z,100795.50
2023-03-03T22:29:40.640Z,100790.77
2023-03-03T22:32:09.306Z,100791.39
2023-03-03T22:34:38.154Z,100790.01
2023-03-03T22:37:06.390Z,100795.92
2023-03-03T22:39:34.590Z,100789.13
2023-03-03T22:42:03.082Z,100784.09
2023-03-03T22:44:31.615Z,100780.00
2023-03-03T22:47:00.630Z,100773.48
2023-03-03T22:49:29.538Z,100763.73
2023-03-03T22:51:59.129Z,100760.48
2023-03-03T22:54:27.529Z,100761.33
2023-03-03T22:56:56.201Z,100758.02
2023-03-03T22:59:24.858Z,100749.71
2023-03-03T23:01:53.199Z,100744.14
2023-03-03T23:04:21.809Z,100735.58
2023-03-03T23:06:50.374Z,100729.73
2023-03-03T23:09:18.955Z,100716.67
2023-03-03T23:11:47.921Z,100713.65
2023-03-03T23:14:16.282Z,100712.33
2023-03-03T23:16:46.145Z,100715.55
2023-03-03T23:19:15.067Z,100704.33
2023-03-03T23:21:43.932Z,100700.13
2023-03-03T23:24:12.742Z,100694.95
2023-03-03T23:26:41.070Z,100691.31
2023-03-03T23:29:09.428Z,100693.17
2023-03-03T23:31:38.261Z,100693.31
2023-03-03T23:34:06.869Z,100692.98
2023-03-03T23:36:35.168Z,100685.39
2023-03-03T23:39:04.175Z,100682.57
2023-03-03T23:41:33.166Z,100687.27
2023-03-03T23:44:01.959Z,100676.02
2023-03-03T23:46:30.336Z,100666.17
2023-03-03T23:49:00.125Z,100662.19
2023-03-03T23:51:28.641Z,100659.27
2023-03-03T23:53:57.510Z,100655.11
2023-03-03T23:56:26.396Z,100657.05
2023-03-03T23:58:54.886Z,100641.95
